sensor_id;sensor_type;location;lat;lon;timestamp;P1;durP1;ratioP1;P2;durP2;ratioP2
38779;SDS011;29273;49.962;9.768;2023-07-31T00:01:18;0.80;;;0.50;;
38779;SDS011;29273;49.962;9.768;2023-07-31T00:03:45;0.98;;;0.52;;
38779;SDS011;29273;49.962;9.768;2023-07-31T00:06:11;1.48;;;0.60;;
38779;SDS011;29273;49.962;9.768;2023-07-31T00:08:36;0.73;;;0.50;;
38779;SDS011;29273;49.962;9.768;2023-07-31T00:11:02;1.25;;;0.70;;
38779;SDS011;29273;49.962;9.768;2023-07-31T00:13:27;1.35;;;0.52;;
38779;SDS011;29273;49.962;9.768;2023-07-31T00:15:53;0.70;;;0.50;;
38779;SDS011;29273;49.962;9.768;2023-07-31T00:18:18;1.08;;;0.60;;
38779;SDS011;29273;49.962;9.768;2023-07-31T00:20:44;1.40;;;0.52;;
38779;SDS011;29273;49.962;9.768;2023-07-31T00:23:09;1.05;;;0.57;;
38779;SDS011;29273;49.962;9.768;2023-07-31T00:25:34;1.45;;;0.50;;
38779;SDS011;29273;49.962;9.768;2023-07-31T00:28:00;1.40;;;0.50;;
38779;SDS011;29273;49.962;9.768;2023-07-31T00:30:25;1.80;;;0.85;;
38779;SDS011;29273;49.962;9.768;2023-07-31T00:32:53;1.73;;;0.68;;
38779;SDS011;29273;49.962;9.768;2023-07-31T00:35:18;0.77;;;0.50;;
38779;SDS011;29273;49.962;9.768;2023-07-31T00:37:43;1.13;;;0.43;;
38779;SDS011;29273;49.962;9.768;2023-07-31T00:40:09;1.95;;;0.50;;
38779;SDS011;29273;49.962;9.768;2023-07-31T00:42:35;1.55;;;0.63;;
38779;SDS011;29273;49.962;9.768;2023-07-31T00:45:00;2.30;;;0.63;;
38779;SDS011;29273;49.962;9.768;2023-07-31T00:47:26;0.98;;;0.57;;
38779;SDS011;29273;49.962;9.768;2023-07-31T00:49:52;1.20;;;0.57;;
38779;SDS011;29273;49.962;9.768;2023-07-31T00:52:18;1.15;;;0.50;;
38779;SDS011;29273;49.962;9.768;2023-07-31T00:54:44;1.33;;;0.60;;
38779;SDS011;29273;49.962;9.768;2023-07-31T00:57:10;2.40;;;0.70;;
38779;SDS011;29273;49.962;9.768;2023-07-31T00:59:35;1.20;;;0.70;;
38779;SDS011;29273;49.962;9.768;2023-07-31T01:02:01;0.80;;;0.50;;
38779;SDS011;29273;49.962;9.768;2023-07-31T01:04:28;0.68;;;0.40;;
38779;SDS011;29273;49.962;9.768;2023-07-31T01:12:28;0.77;;;0.40;;
38779;SDS011;29273;49.962;9.768;2023-07-31T01:15:05;1.45;;;0.60;;
38779;SDS011;29273;49.962;9.768;2023-07-31T01:17:31;0.90;;;0.57;;
38779;SDS011;29273;49.962;9.768;2023-07-31T01:19:59;0.98;;;0.45;;
38779;SDS011;29273;49.962;9.768;2023-07-31T01:22:41;0.85;;;0.60;;
38779;SDS011;29273;49.962;9.768;2023-07-31T01:27:59;1.45;;;0.50;;
38779;SDS011;29273;49.962;9.768;2023-07-31T01:30:41;0.82;;;0.60;;
38779;SDS011;29273;49.962;9.768;2023-07-31T01:33:09;0.80;;;0.40;;
38779;SDS011;29273;49.962;9.768;2023-07-31T01:35:36;1.17;;;0.52;;
38779;SDS011;29273;49.962;9.768;2023-07-31T01:38:02;1.13;;;0.50;;
38779;SDS011;29273;49.962;9.768;2023-07-31T01:40:29;1.52;;;0.50;;
38779;SDS011;29273;49.962;9.768;2023-07-31T01:42:55;0.93;;;0.50;;
38779;SDS011;29273;49.962;9.768;2023-07-31T01:45:20;1.05;;;0.45;;
38779;SDS011;29273;49.962;9.768;2023-07-31T01:47:46;0.95;;;0.45;;
38779;SDS011;29273;49.962;9.768;2023-07-31T01:50:11;1.05;;;0.68;;
38779;SDS011;29273;49.962;9.768;2023-07-31T01:52:36;1.38;;;0.60;;
38779;SDS011;29273;49.962;9.768;2023-07-31T01:55:02;1.73;;;0.60;;
38779;SDS011;29273;49.962;9.768;2023-07-31T01:57:28;1.52;;;0.68;;
38779;SDS011;29273;49.962;9.768;2023-07-31T01:59:53;1.30;;;0.60;;
38779;SDS011;29273;49.962;9.768;2023-07-31T02:02:19;2.75;;;0.75;;
38779;SDS011;29273;49.962;9.768;2023-07-31T02:04:45;1.52;;;0.60;;
38779;SDS011;29273;49.962;9.768;2023-07-31T02:07:10;1.55;;;0.55;;
38779;SDS011;29273;49.962;9.768;2023-07-31T02:09:36;1.08;;;0.50;;
38779;SDS011;29273;49.962;9.768;2023-07-31T02:12:01;1.85;;;0.60;;
38779;SDS011;29273;49.962;9.768;2023-07-31T02:14:27;1.13;;;0.68;;
38779;SDS011;29273;49.962;9.768;2023-07-31T02:16:52;1.10;;;0.60;;
38779;SDS011;29273;49.962;9.768;2023-07-31T02:19:18;1.17;;;0.60;;
38779;SDS011;29273;49.962;9.768;2023-07-31T02:21:43;1.02;;;0.57;;
38779;SDS011;29273;49.962;9.768;2023-07-31T02:24:09;1.15;;;0.60;;
38779;SDS011;29273;49.962;9.768;2023-07-31T02:26:35;0.90;;;0.70;;
38779;SDS011;29273;49.962;9.768;2023-07-31T02:29:02;0.88;;;0.60;;
38779;SDS011;29273;49.962;9.768;2023-07-31T02:31:27;0.95;;;0.52;;
38779;SDS011;29273;49.962;9.768;2023-07-31T02:33:53;1.15;;;0.50;;
38779;SDS011;29273;49.962;9.768;2023-07-31T02:36:18;0.88;;;0.60;;
38779;SDS011;29273;49.962;9.768;2023-07-31T02:38:44;1.30;;;0.60;;
38779;SDS011;29273;49.962;9.768;2023-07-31T02:41:09;1.73;;;0.80;;
38779;SDS011;29273;49.962;9.768;2023-07-31T02:43:35;1.17;;;0.70;;
38779;SDS011;29273;49.962;9.768;2023-07-31T02:46:00;0.90;;;0.55;;
38779;SDS011;29273;49.962;9.768;2023-07-31T02:48:26;1.33;;;0.63;;
38779;SDS011;29273;49.962;9.768;2023-07-31T02:50:51;0.63;;;0.50;;
38779;SDS011;29273;49.962;9.768;2023-07-31T02:53:16;0.85;;;0.60;;
38779;SDS011;29273;49.962;9.768;2023-07-31T02:55:42;1.52;;;0.77;;
38779;SDS011;29273;49.962;9.768;2023-07-31T02:58:07;1.13;;;0.77;;
38779;SDS011;29273;49.962;9.768;2023-07-31T03:00:33;1.33;;;0.50;;
38779;SDS011;29273;49.962;9.768;2023-07-31T03:02:58;1.35;;;0.60;;
38779;SDS011;29273;49.962;9.768;2023-07-31T03:05:24;1.63;;;0.60;;
38779;SDS011;29273;49.962;9.768;2023-07-31T03:07:49;1.63;;;0.52;;
38779;SDS011;29273;49.962;9.768;2023-07-31T03:10:15;1.27;;;0.68;;
38779;SDS011;29273;49.962;9.768;2023-07-31T03:12:40;1.08;;;0.50;;
38779;SDS011;29273;49.962;9.768;2023-07-31T03:15:06;1.67;;;0.75;;
38779;SDS011;29273;49.962;9.768;2023-07-31T03:17:32;0.60;;;0.57;;
38779;SDS011;29273;49.962;9.768;2023-07-31T03:19:57;0.82;;;0.57;;
38779;SDS011;29273;49.962;9.768;2023-07-31T03:22:23;1.38;;;0.70;;
38779;SDS011;29273;49.962;9.768;2023-07-31T03:24:48;2.22;;;0.60;;
38779;SDS011;29273;49.962;9.768;2023-07-31T03:27:14;0.95;;;0.55;;
38779;SDS011;29273;49.962;9.768;2023-07-31T03:29:39;1.08;;;0.57;;
38779;SDS011;29273;49.962;9.768;2023-07-31T03:32:05;1.10;;;0.52;;
38779;SDS011;29273;49.962;9.768;2023-07-31T03:34:31;2.38;;;0.73;;
38779;SDS011;29273;49.962;9.768;2023-07-31T03:36:57;2.05;;;0.60;;
38779;SDS011;29273;49.962;9.768;2023-07-31T03:39:23;1.50;;;0.80;;
38779;SDS011;29273;49.962;9.768;2023-07-31T03:41:49;1.15;;;0.80;;
38779;SDS011;29273;49.962;9.768;2023-07-31T03:44:16;1.10;;;0.70;;
38779;SDS011;29273;49.962;9.768;2023-07-31T03:46:42;0.68;;;0.50;;
38779;SDS011;29273;49.962;9.768;2023-07-31T03:49:07;1.98;;;0.60;;
38779;SDS011;29273;49.962;9.768;2023-07-31T03:51:33;1.45;;;0.68;;
38779;SDS011;29273;49.962;9.768;2023-07-31T03:54:00;2.22;;;0.77;;
38779;SDS011;29273;49.962;9.768;2023-07-31T03:56:26;1.35;;;0.70;;
38779;SDS011;29273;49.962;9.768;2023-07-31T03:58:51;1.17;;;0.75;;
38779;SDS011;29273;49.962;9.768;2023-07-31T04:01:16;1.30;;;0.60;;
38779;SDS011;29273;49.962;9.768;2023-07-31T04:03:43;1.67;;;0.70;;
38779;SDS011;29273;49.962;9.768;2023-07-31T04:06:08;1.58;;;0.73;;
38779;SDS011;29273;49.962;9.768;2023-07-31T04:08:34;1.30;;;0.70;;
38779;SDS011;29273;49.962;9.768;2023-07-31T04:10:59;1.35;;;0.60;;
38779;SDS011;29273;49.962;9.768;2023-07-31T04:13:24;1.10;;;0.70;;
38779;SDS011;29273;49.962;9.768;2023-07-31T04:15:52;2.15;;;0.70;;
38779;SDS011;29273;49.962;9.768;2023-07-31T04:18:19;1.23;;;0.77;;
38779;SDS011;29273;49.962;9.768;2023-07-31T04:20:45;2.17;;;0.70;;
38779;SDS011;29273;49.962;9.768;2023-07-31T04:23:11;0.82;;;0.70;;
38779;SDS011;29273;49.962;9.768;2023-07-31T04:25:36;2.22;;;0.98;;
38779;SDS011;29273;49.962;9.768;2023-07-31T04:28:02;1.95;;;0.90;;
38779;SDS011;29273;49.962;9.768;2023-07-31T04:30:27;1.05;;;0.80;;
38779;SDS011;29273;49.962;9.768;2023-07-31T04:32:53;1.83;;;0.70;;
38779;SDS011;29273;49.962;9.768;2023-07-31T04:35:18;2.45;;;0.80;;
38779;SDS011;29273;49.962;9.768;2023-07-31T04:37:43;1.33;;;0.80;;
38779;SDS011;29273;49.962;9.768;2023-07-31T04:40:11;1.33;;;0.75;;
38779;SDS011;29273;49.962;9.768;2023-07-31T04:42:37;1.33;;;0.90;;
38779;SDS011;29273;49.962;9.768;2023-07-31T04:45:02;1.98;;;1.05;;
38779;SDS011;29273;49.962;9.768;2023-07-31T04:47:28;1.17;;;0.73;;
38779;SDS011;29273;49.962;9.768;2023-07-31T04:49:53;1.42;;;0.80;;
38779;SDS011;29273;49.962;9.768;2023-07-31T04:52:19;1.40;;;0.75;;
38779;SDS011;29273;49.962;9.768;2023-07-31T04:54:44;0.90;;;0.65;;
38779;SDS011;29273;49.962;9.768;2023-07-31T04:57:10;1.33;;;1.00;;
38779;SDS011;29273;49.962;9.768;2023-07-31T04:59:35;1.23;;;0.77;;
38779;SDS011;29273;49.962;9.768;2023-07-31T05:02:02;2.00;;;1.23;;
38779;SDS011;29273;49.962;9.768;2023-07-31T05:04:27;1.70;;;1.00;;
38779;SDS011;29273;49.962;9.768;2023-07-31T05:06:53;2.72;;;1.00;;
38779;SDS011;29273;49.962;9.768;2023-07-31T05:09:18;1.33;;;0.82;;
38779;SDS011;29273;49.962;9.768;2023-07-31T05:11:44;2.58;;;1.08;;
38779;SDS011;29273;49.962;9.768;2023-07-31T05:14:09;2.30;;;1.08;;
38779;SDS011;29273;49.962;9.768;2023-07-31T05:16:35;1.42;;;0.90;;
38779;SDS011;29273;49.962;9.768;2023-07-31T05:19:00;2.65;;;0.80;;
38779;SDS011;29273;49.962;9.768;2023-07-31T05:21:25;2.75;;;1.00;;
38779;SDS011;29273;49.962;9.768;2023-07-31T05:23:51;2.08;;;1.08;;
38779;SDS011;29273;49.962;9.768;2023-07-31T05:26:16;0.93;;;0.75;;
38779;SDS011;29273;49.962;9.768;2023-07-31T05:28:42;4.93;;;1.20;;
38779;SDS011;29273;49.962;9.768;2023-07-31T05:31:08;1.55;;;0.90;;
38779;SDS011;29273;49.962;9.768;2023-07-31T05:33:33;1.27;;;0.85;;
38779;SDS011;29273;49.962;9.768;2023-07-31T05:35:59;1.92;;;0.80;;
38779;SDS011;29273;49.962;9.768;2023-07-31T05:38:24;2.38;;;1.00;;
38779;SDS011;29273;49.962;9.768;2023-07-31T05:40:50;1.05;;;0.80;;
38779;SDS011;29273;49.962;9.768;2023-07-31T05:43:15;1.90;;;1.05;;
38779;SDS011;29273;49.962;9.768;2023-07-31T05:45:43;2.17;;;1.00;;
38779;SDS011;29273;49.962;9.768;2023-07-31T05:48:09;1.40;;;0.90;;
38779;SDS011;29273;49.962;9.768;2023-07-31T05:50:34;1.30;;;0.85;;
38779;SDS011;29273;49.962;9.768;2023-07-31T05:53:00;2.20;;;1.08;;
38779;SDS011;29273;49.962;9.768;2023-07-31T05:55:25;1.85;;;1.00;;
38779;SDS011;29273;49.962;9.768;2023-07-31T05:57:52;1.52;;;1.00;;
38779;SDS011;29273;49.962;9.768;2023-07-31T06:00:18;1.05;;;0.90;;
38779;SDS011;29273;49.962;9.768;2023-07-31T06:02:43;2.15;;;1.20;;
38779;SDS011;29273;49.962;9.768;2023-07-31T06:05:09;1.33;;;0.85;;
38779;SDS011;29273;49.962;9.768;2023-07-31T06:07:35;1.73;;;0.90;;
38779;SDS011;29273;49.962;9.768;2023-07-31T06:10:01;2.83;;;1.00;;
38779;SDS011;29273;49.962;9.768;2023-07-31T06:12:32;1.48;;;0.90;;
38779;SDS011;29273;49.962;9.768;2023-07-31T06:14:58;2.17;;;0.80;;
38779;SDS011;29273;49.962;9.768;2023-07-31T06:17:23;1.63;;;0.98;;
38779;SDS011;29273;49.962;9.768;2023-07-31T06:19:49;1.92;;;0.85;;
38779;SDS011;29273;49.962;9.768;2023-07-31T06:22:15;1.52;;;0.95;;
38779;SDS011;29273;49.962;9.768;2023-07-31T06:24:41;1.90;;;1.10;;
38779;SDS011;29273;49.962;9.768;2023-07-31T06:27:06;1.73;;;1.05;;
38779;SDS011;29273;49.962;9.768;2023-07-31T06:29:32;1.63;;;0.80;;
38779;SDS011;29273;49.962;9.768;2023-07-31T06:31:58;1.00;;;0.75;;
38779;SDS011;29273;49.962;9.768;2023-07-31T06:34:24;1.55;;;0.75;;
38779;SDS011;29273;49.962;9.768;2023-07-31T06:36:49;3.25;;;1.10;;
38779;SDS011;29273;49.962;9.768;2023-07-31T06:39:14;2.00;;;1.10;;
38779;SDS011;29273;49.962;9.768;2023-07-31T06:41:40;2.90;;;1.00;;
38779;SDS011;29273;49.962;9.768;2023-07-31T06:44:09;1.92;;;1.08;;
38779;SDS011;29273;49.962;9.768;2023-07-31T06:46:36;3.13;;;1.02;;
38779;SDS011;29273;49.962;9.768;2023-07-31T06:49:01;1.85;;;1.00;;
38779;SDS011;29273;49.962;9.768;2023-07-31T06:51:27;1.20;;;0.80;;
38779;SDS011;29273;49.962;9.768;2023-07-31T06:53:52;2.72;;;1.00;;
38779;SDS011;29273;49.962;9.768;2023-07-31T06:56:18;1.63;;;1.00;;
38779;SDS011;29273;49.962;9.768;2023-07-31T06:58:43;2.38;;;1.00;;
38779;SDS011;29273;49.962;9.768;2023-07-31T07:01:09;1.67;;;1.27;;
38779;SDS011;29273;49.962;9.768;2023-07-31T07:03:34;3.25;;;1.08;;
38779;SDS011;29273;49.962;9.768;2023-07-31T07:06:00;2.70;;;1.10;;
38779;SDS011;29273;49.962;9.768;2023-07-31T07:08:25;1.10;;;0.80;;
38779;SDS011;29273;49.962;9.768;2023-07-31T07:10:51;1.55;;;0.88;;
38779;SDS011;29273;49.962;9.768;2023-07-31T07:13:16;1.42;;;1.05;;
38779;SDS011;29273;49.962;9.768;2023-07-31T07:15:43;3.17;;;1.05;;
38779;SDS011;29273;49.962;9.768;2023-07-31T07:18:13;1.67;;;1.00;;
38779;SDS011;29273;49.962;9.768;2023-07-31T07:20:39;1.42;;;0.93;;
38779;SDS011;29273;49.962;9.768;2023-07-31T07:23:04;1.25;;;0.80;;
38779;SDS011;29273;49.962;9.768;2023-07-31T07:25:30;1.23;;;0.90;;
38779;SDS011;29273;49.962;9.768;2023-07-31T07:27:56;1.60;;;1.00;;
38779;SDS011;29273;49.962;9.768;2023-07-31T07:30:21;2.95;;;0.93;;
38779;SDS011;29273;49.962;9.768;2023-07-31T07:32:46;1.95;;;1.10;;
38779;SDS011;29273;49.962;9.768;2023-07-31T07:35:12;2.78;;;0.90;;
38779;SDS011;29273;49.962;9.768;2023-07-31T07:37:38;1.98;;;0.95;;
38779;SDS011;29273;49.962;9.768;2023-07-31T07:40:03;2.72;;;0.98;;
38779;SDS011;29273;49.962;9.768;2023-07-31T07:42:29;2.05;;;0.80;;
38779;SDS011;29273;49.962;9.768;2023-07-31T07:44:54;1.73;;;0.90;;
38779;SDS011;29273;49.962;9.768;2023-07-31T07:47:20;2.47;;;1.25;;
38779;SDS011;29273;49.962;9.768;2023-07-31T07:49:45;2.25;;;1.10;;
38779;SDS011;29273;49.962;9.768;2023-07-31T07:52:11;2.05;;;1.02;;
38779;SDS011;29273;49.962;9.768;2023-07-31T07:54:36;2.50;;;1.30;;
38779;SDS011;29273;49.962;9.768;2023-07-31T07:57:02;1.63;;;1.00;;
38779;SDS011;29273;49.962;9.768;2023-07-31T07:59:28;2.60;;;1.25;;
38779;SDS011;29273;49.962;9.768;2023-07-31T08:01:53;2.65;;;1.50;;
38779;SDS011;29273;49.962;9.768;2023-07-31T08:04:19;1.95;;;1.45;;
38779;SDS011;29273;49.962;9.768;2023-07-31T08:06:44;1.92;;;1.00;;
38779;SDS011;29273;49.962;9.768;2023-07-31T08:09:10;3.08;;;1.17;;
38779;SDS011;29273;49.962;9.768;2023-07-31T08:11:35;2.10;;;1.00;;
38779;SDS011;29273;49.962;9.768;2023-07-31T08:14:01;2.33;;;1.20;;
38779;SDS011;29273;49.962;9.768;2023-07-31T08:16:26;2.15;;;1.05;;
38779;SDS011;29273;49.962;9.768;2023-07-31T08:18:52;1.92;;;1.00;;
38779;SDS011;29273;49.962;9.768;2023-07-31T08:21:17;2.95;;;1.10;;
38779;SDS011;29273;49.962;9.768;2023-07-31T08:23:43;5.45;;;1.40;;
38779;SDS011;29273;49.962;9.768;2023-07-31T08:26:14;1.70;;;1.00;;
38779;SDS011;29273;49.962;9.768;2023-07-31T08:28:43;3.60;;;1.35;;
38779;SDS011;29273;49.962;9.768;2023-07-31T08:31:08;1.77;;;1.10;;
38779;SDS011;29273;49.962;9.768;2023-07-31T08:33:34;1.60;;;1.00;;
38779;SDS011;29273;49.962;9.768;2023-07-31T08:35:59;2.28;;;1.33;;
38779;SDS011;29273;49.962;9.768;2023-07-31T08:38:26;2.05;;;1.13;;
38779;SDS011;29273;49.962;9.768;2023-07-31T08:40:51;1.80;;;1.10;;
38779;SDS011;29273;49.962;9.768;2023-07-31T08:43:17;1.40;;;1.10;;
38779;SDS011;29273;49.962;9.768;2023-07-31T08:45:44;3.80;;;1.50;;
38779;SDS011;29273;49.962;9.768;2023-07-31T08:48:09;2.28;;;1.52;;
38779;SDS011;29273;49.962;9.768;2023-07-31T08:50:37;1.92;;;1.25;;
38779;SDS011;29273;49.962;9.768;2023-07-31T08:53:04;1.60;;;1.20;;
38779;SDS011;29273;49.962;9.768;2023-07-31T08:55:29;2.00;;;1.20;;
38779;SDS011;29273;49.962;9.768;2023-07-31T08:57:56;3.00;;;1.60;;
38779;SDS011;29273;49.962;9.768;2023-07-31T09:00:22;3.15;;;1.30;;
38779;SDS011;29273;49.962;9.768;2023-07-31T09:02:56;2.00;;;1.10;;
38779;SDS011;29273;49.962;9.768;2023-07-31T09:05:26;4.22;;;1.48;;
38779;SDS011;29273;49.962;9.768;2023-07-31T09:07:52;3.25;;;1.60;;
38779;SDS011;29273;49.962;9.768;2023-07-31T09:10:20;2.97;;;1.60;;
38779;SDS011;29273;49.962;9.768;2023-07-31T09:12:46;2.00;;;1.33;;
38779;SDS011;29273;49.962;9.768;2023-07-31T09:15:11;2.25;;;1.50;;
38779;SDS011;29273;49.962;9.768;2023-07-31T09:17:37;1.75;;;1.13;;
38779;SDS011;29273;49.962;9.768;2023-07-31T09:20:21;2.70;;;1.25;;
38779;SDS011;29273;49.962;9.768;2023-07-31T09:22:47;2.65;;;1.10;;
38779;SDS011;29273;49.962;9.768;2023-07-31T09:27:45;1.85;;;1.30;;
38779;SDS011;29273;49.962;9.768;2023-07-31T09:30:12;2.70;;;1.63;;
38779;SDS011;29273;49.962;9.768;2023-07-31T09:32:38;2.17;;;1.35;;
38779;SDS011;29273;49.962;9.768;2023-07-31T09:37:49;2.42;;;1.40;;
38779;SDS011;29273;49.962;9.768;2023-07-31T09:40:32;2.53;;;1.50;;
38779;SDS011;29273;49.962;9.768;2023-07-31T09:42:59;2.90;;;1.50;;
38779;SDS011;29273;49.962;9.768;2023-07-31T09:45:26;2.05;;;1.15;;
38779;SDS011;29273;49.962;9.768;2023-07-31T09:47:53;1.77;;;1.10;;
38779;SDS011;29273;49.962;9.768;2023-07-31T09:50:22;1.77;;;1.25;;
38779;SDS011;29273;49.962;9.768;2023-07-31T09:52:50;1.75;;;1.10;;
38779;SDS011;29273;49.962;9.768;2023-07-31T09:55:17;1.80;;;1.15;;
38779;SDS011;29273;49.962;9.768;2023-07-31T09:57:46;1.95;;;1.20;;
38779;SDS011;29273;49.962;9.768;2023-07-31T10:00:13;1.58;;;1.20;;
38779;SDS011;29273;49.962;9.768;2023-07-31T10:02:44;2.13;;;1.20;;
38779;SDS011;29273;49.962;9.768;2023-07-31T10:05:12;1.42;;;1.00;;
38779;SDS011;29273;49.962;9.768;2023-07-31T10:07:42;1.60;;;1.10;;
38779;SDS011;29273;49.962;9.768;2023-07-31T10:10:10;1.67;;;1.35;;
38779;SDS011;29273;49.962;9.768;2023-07-31T10:12:37;1.95;;;1.33;;
38779;SDS011;29273;49.962;9.768;2023-07-31T10:15:03;2.00;;;1.10;;
38779;SDS011;29273;49.962;9.768;2023-07-31T10:17:30;2.80;;;1.30;;
38779;SDS011;29273;49.962;9.768;2023-07-31T10:19:59;2.80;;;1.40;;
38779;SDS011;29273;49.962;9.768;2023-07-31T10:22:30;1.60;;;1.23;;
38779;SDS011;29273;49.962;9.768;2023-07-31T10:25:00;2.83;;;1.30;;
38779;SDS011;29273;49.962;9.768;2023-07-31T10:27:26;1.70;;;1.30;;
38779;SDS011;29273;49.962;9.768;2023-07-31T10:29:53;3.03;;;1.15;;
38779;SDS011;29273;49.962;9.768;2023-07-31T10:32:20;2.60;;;1.30;;
38779;SDS011;29273;49.962;9.768;2023-07-31T10:34:46;2.22;;;1.33;;
38779;SDS011;29273;49.962;9.768;2023-07-31T10:37:46;2.35;;;1.27;;
38779;SDS011;29273;49.962;9.768;2023-07-31T10:40:11;2.25;;;1.30;;
38779;SDS011;29273;49.962;9.768;2023-07-31T10:42:48;1.67;;;1.10;;
38779;SDS011;29273;49.962;9.768;2023-07-31T10:45:41;1.48;;;0.93;;
38779;SDS011;29273;49.962;9.768;2023-07-31T10:48:12;1.73;;;1.23;;
38779;SDS011;29273;49.962;9.768;2023-07-31T10:50:45;2.45;;;1.00;;
38779;SDS011;29273;49.962;9.768;2023-07-31T10:53:29;1.45;;;1.10;;
38779;SDS011;29273;49.962;9.768;2023-07-31T10:55:59;1.38;;;0.95;;
38779;SDS011;29273;49.962;9.768;2023-07-31T10:58:26;3.17;;;1.00;;
38779;SDS011;29273;49.962;9.768;2023-07-31T11:00:55;1.92;;;1.23;;
38779;SDS011;29273;49.962;9.768;2023-07-31T11:03:24;1.60;;;1.10;;
38779;SDS011;29273;49.962;9.768;2023-07-31T11:08:29;2.40;;;1.40;;
38779;SDS011;29273;49.962;9.768;2023-07-31T11:13:32;2.85;;;1.40;;
38779;SDS011;29273;49.962;9.768;2023-07-31T11:15:59;2.88;;;1.30;;
38779;SDS011;29273;49.962;9.768;2023-07-31T11:18:26;2.30;;;1.13;;
38779;SDS011;29273;49.962;9.768;2023-07-31T11:20:52;1.60;;;1.10;;
38779;SDS011;29273;49.962;9.768;2023-07-31T11:23:19;5.82;;;1.92;;
38779;SDS011;29273;49.962;9.768;2023-07-31T11:25:45;2.30;;;1.30;;
38779;SDS011;29273;49.962;9.768;2023-07-31T11:28:14;2.50;;;1.55;;
38779;SDS011;29273;49.962;9.768;2023-07-31T11:30:41;2.28;;;1.60;;
38779;SDS011;29273;49.962;9.768;2023-07-31T11:33:08;2.63;;;1.63;;
38779;SDS011;29273;49.962;9.768;2023-07-31T11:35:45;2.50;;;1.60;;
38779;SDS011;29273;49.962;9.768;2023-07-31T11:38:28;2.00;;;1.50;;
38779;SDS011;29273;49.962;9.768;2023-07-31T11:40:59;2.95;;;2.13;;
38779;SDS011;29273;49.962;9.768;2023-07-31T11:43:28;3.30;;;1.30;;
38779;SDS011;29273;49.962;9.768;2023-07-31T11:45:58;2.33;;;1.30;;
38779;SDS011;29273;49.962;9.768;2023-07-31T11:48:34;2.03;;;1.60;;
38779;SDS011;29273;49.962;9.768;2023-07-31T11:51:05;2.78;;;1.33;;
38779;SDS011;29273;49.962;9.768;2023-07-31T11:56:02;2.42;;;1.60;;
38779;SDS011;29273;49.962;9.768;2023-07-31T11:58:31;2.83;;;1.48;;
38779;SDS011;29273;49.962;9.768;2023-07-31T12:00:59;3.17;;;1.90;;
38779;SDS011;29273;49.962;9.768;2023-07-31T12:03:25;3.70;;;1.60;;
38779;SDS011;29273;49.962;9.768;2023-07-31T12:05:52;2.38;;;1.65;;
38779;SDS011;29273;49.962;9.768;2023-07-31T12:08:18;2.35;;;1.20;;
38779;SDS011;29273;49.962;9.768;2023-07-31T12:10:46;3.10;;;1.50;;
38779;SDS011;29273;49.962;9.768;2023-07-31T12:13:19;2.50;;;1.50;;
38779;SDS011;29273;49.962;9.768;2023-07-31T12:15:48;2.53;;;1.50;;
38779;SDS011;29273;49.962;9.768;2023-07-31T12:18:21;2.45;;;1.60;;
38779;SDS011;29273;49.962;9.768;2023-07-31T12:20:48;3.40;;;1.75;;
38779;SDS011;29273;49.962;9.768;2023-07-31T12:23:19;2.65;;;1.50;;
38779;SDS011;29273;49.962;9.768;2023-07-31T12:26:11;2.25;;;1.75;;
38779;SDS011;29273;49.962;9.768;2023-07-31T12:28:39;2.92;;;1.42;;
38779;SDS011;29273;49.962;9.768;2023-07-31T12:31:21;2.03;;;1.38;;
38779;SDS011;29273;49.962;9.768;2023-07-31T12:33:48;2.53;;;1.27;;
38779;SDS011;29273;49.962;9.768;2023-07-31T12:36:23;2.55;;;1.60;;
38779;SDS011;29273;49.962;9.768;2023-07-31T12:38:49;2.33;;;1.73;;
38779;SDS011;29273;49.962;9.768;2023-07-31T12:41:15;3.50;;;2.13;;
38779;SDS011;29273;49.962;9.768;2023-07-31T12:43:42;3.60;;;2.20;;
38779;SDS011;29273;49.962;9.768;2023-07-31T12:46:09;2.75;;;1.80;;
38779;SDS011;29273;49.962;9.768;2023-07-31T12:48:35;2.40;;;1.50;;
38779;SDS011;29273;49.962;9.768;2023-07-31T12:51:01;3.38;;;1.50;;
38779;SDS011;29273;49.962;9.768;2023-07-31T12:53:27;2.78;;;1.75;;
38779;SDS011;29273;49.962;9.768;2023-07-31T12:55:53;3.20;;;1.60;;
38779;SDS011;29273;49.962;9.768;2023-07-31T12:58:19;2.67;;;1.58;;
38779;SDS011;29273;49.962;9.768;2023-07-31T13:00:44;2.88;;;1.77;;
38779;SDS011;29273;49.962;9.768;2023-07-31T13:03:10;3.53;;;2.08;;
38779;SDS011;29273;49.962;9.768;2023-07-31T13:05:36;2.22;;;1.15;;
38779;SDS011;29273;49.962;9.768;2023-07-31T13:08:01;1.60;;;1.17;;
38779;SDS011;29273;49.962;9.768;2023-07-31T13:10:27;2.42;;;1.50;;
38779;SDS011;29273;49.962;9.768;2023-07-31T13:12:53;2.90;;;1.45;;
38779;SDS011;29273;49.962;9.768;2023-07-31T13:15:19;2.50;;;1.58;;
38779;SDS011;29273;49.962;9.768;2023-07-31T13:17:45;2.75;;;1.60;;
38779;SDS011;29273;49.962;9.768;2023-07-31T13:20:11;2.95;;;1.55;;
38779;SDS011;29273;49.962;9.768;2023-07-31T13:22:36;4.10;;;2.15;;
38779;SDS011;29273;49.962;9.768;2023-07-31T13:25:02;2.55;;;1.60;;
38779;SDS011;29273;49.962;9.768;2023-07-31T13:27:29;3.05;;;1.35;;
38779;SDS011;29273;49.962;9.768;2023-07-31T13:29:54;2.08;;;1.40;;
38779;SDS011;29273;49.962;9.768;2023-07-31T13:32:20;2.60;;;2.00;;
38779;SDS011;29273;49.962;9.768;2023-07-31T13:34:46;2.78;;;1.52;;
38779;SDS011;29273;49.962;9.768;2023-07-31T13:37:12;2.67;;;1.70;;
38779;SDS011;29273;49.962;9.768;2023-07-31T13:39:39;2.42;;;1.52;;
38779;SDS011;29273;49.962;9.768;2023-07-31T13:42:05;3.10;;;1.55;;
38779;SDS011;29273;49.962;9.768;2023-07-31T13:44:35;3.15;;;1.90;;
38779;SDS011;29273;49.962;9.768;2023-07-31T13:47:01;3.47;;;1.60;;
38779;SDS011;29273;49.962;9.768;2023-07-31T13:49:28;2.80;;;1.65;;
38779;SDS011;29273;49.962;9.768;2023-07-31T13:51:54;2.55;;;1.38;;
38779;SDS011;29273;49.962;9.768;2023-07-31T13:54:19;2.92;;;1.83;;
38779;SDS011;29273;49.962;9.768;2023-07-31T13:56:45;2.20;;;1.48;;
38779;SDS011;29273;49.962;9.768;2023-07-31T13:59:10;2.92;;;1.65;;
38779;SDS011;29273;49.962;9.768;2023-07-31T14:01:36;2.03;;;1.52;;
38779;SDS011;29273;49.962;9.768;2023-07-31T14:04:02;2.83;;;1.70;;
38779;SDS011;29273;49.962;9.768;2023-07-31T14:06:28;1.88;;;1.48;;
38779;SDS011;29273;49.962;9.768;2023-07-31T14:08:53;2.55;;;1.55;;
38779;SDS011;29273;49.962;9.768;2023-07-31T14:11:21;2.65;;;1.80;;
38779;SDS011;29273;49.962;9.768;2023-07-31T14:13:47;3.15;;;1.65;;
38779;SDS011;29273;49.962;9.768;2023-07-31T14:16:12;3.10;;;1.88;;
38779;SDS011;29273;49.962;9.768;2023-07-31T14:18:38;3.40;;;1.42;;
38779;SDS011;29273;49.962;9.768;2023-07-31T14:21:03;2.28;;;1.30;;
38779;SDS011;29273;49.962;9.768;2023-07-31T14:23:29;3.10;;;1.40;;
38779;SDS011;29273;49.962;9.768;2023-07-31T14:25:54;2.60;;;1.60;;
38779;SDS011;29273;49.962;9.768;2023-07-31T14:28:20;1.85;;;1.42;;
38779;SDS011;29273;49.962;9.768;2023-07-31T14:30:45;3.95;;;1.60;;
38779;SDS011;29273;49.962;9.768;2023-07-31T14:33:11;1.92;;;1.40;;
38779;SDS011;29273;49.962;9.768;2023-07-31T14:35:36;2.15;;;1.52;;
38779;SDS011;29273;49.962;9.768;2023-07-31T14:38:01;2.88;;;1.45;;
38779;SDS011;29273;49.962;9.768;2023-07-31T14:40:27;2.10;;;1.60;;
38779;SDS011;29273;49.962;9.768;2023-07-31T14:42:53;1.85;;;1.40;;
38779;SDS011;29273;49.962;9.768;2023-07-31T14:45:18;2.60;;;2.00;;
38779;SDS011;29273;49.962;9.768;2023-07-31T14:47:44;1.80;;;1.48;;
38779;SDS011;29273;49.962;9.768;2023-07-31T14:50:09;2.65;;;1.70;;
38779;SDS011;29273;49.962;9.768;2023-07-31T14:52:35;2.55;;;1.77;;
38779;SDS011;29273;49.962;9.768;2023-07-31T14:55:00;2.40;;;1.55;;
38779;SDS011;29273;49.962;9.768;2023-07-31T14:57:26;2.72;;;1.65;;
38779;SDS011;29273;49.962;9.768;2023-07-31T14:59:52;2.38;;;1.60;;
38779;SDS011;29273;49.962;9.768;2023-07-31T15:02:17;3.30;;;2.00;;
38779;SDS011;29273;49.962;9.768;2023-07-31T15:04:42;15.07;;;2.88;;
38779;SDS011;29273;49.962;9.768;2023-07-31T15:07:08;3.72;;;2.08;;